PTAO2: Poteau River, Poteau, OK

                                SHEF ID:       PTAO2     Poteau River at Poteau, OK
STATION TYPE:
Regulating: Stage = 20.00, Flow = 7395

PRECIP STAGE RIV-FLOW VOLTAGE BAT-LOAD
in ft cfs volt volt
Ccp-Rev Ccp-Rev Ccp-Rev Ccp-Rev Ccp-Rev
(America/Chicago)
07/08 00:00 0.00 12.92 3905 12.85 12.22
07/08 01:00 0.00 12.45 3739 12.83 12.21
07/08 02:00 0.00 12.04 3594 12.82 12.20
07/08 03:00 0.00 11.63 3449 12.81 12.22
07/08 04:00 0.00 11.25 3315 12.79 12.17
07/08 05:00 0.00 10.93 3199 12.79 12.21
07/08 06:00 0.00 10.62 3084 12.78 12.16
07/08 07:00 0.12 10.35 2985 12.79 12.18
07/08 08:00 0.13 10.21 2934 12.81 12.17
07/08 09:00 0.31 10.12 2901 12.80 12.18
07/08 10:00 0.08 10.09 2890 12.93 12.31
07/08 11:00 0.01 10.17 2919 13.06 12.41
07/08 12:00 0.00 10.41 3007 14.01 12.77
07/08 13:00 0.00 10.77 3140 13.82 12.90
07/08 14:00 0.00 11.12 3269 13.36 12.65
07/08 15:00 0.02 11.48 3396 13.37 12.61
07/08 16:00 0.00 11.71 3477 13.35 12.59
07/08 17:00 0.00 11.86 3530 13.55 12.67
07/08 18:00 0.00 11.91 3548 13.61 12.67
07/08 19:00 0.00 11.87 3534 13.63 12.65
07/08 20:00 0.00 11.78 3502 13.36 12.65
07/08 21:00 0.00 11.67 3463 13.08 12.50
07/08 22:00 0.00 11.47 3393 12.98 12.44
07/08 23:00 0.00 11.28 3326 12.93 12.31
Data processed at Wed 09Jul2025 04:48 GMT

Parsing this webpage?

Checkout our new Data API! CWMSDataAPI (CDA)

Timeseries IDs (TSIDs)

TSIDs used from left to right in the data table
POTE.Precip-Inc.Total.1Hour.1Hour.Ccp-Rev
POTE.Stage.Inst.1Hour.0.Ccp-Rev
POTE.Flow.Inst.1Hour.0.Ccp-Rev
POTE.Volt-Battery.Inst.1Hour.0.Ccp-Rev
POTE.Volt-Battery Load.Inst.1Hour.0.Ccp-Rev

                            

All information presented herein is the property of the government of the United States of America and may be revised or deleted at any time without prior notice. Dissemination of this information without the expressed written consent of the Public Affairs Office, Tulsa District U.S. Army Corps of Engineers is strictly prohibited. These data are gathered electronically and, as presented, have NOT undergone any form of quality control. These data are NOT guaranteed to be valid or correct.